首页
METAR-TAF:

METAR-TAF

机场 :

三亚凤凰国际机场

三亚, 中华人民共和国

纬度: 18-18N, 经度: 109-24E, 海拔: 27米

当前天气观测

该预报发布于32分钟前的04:00 UTC
风速6节,风向西,在西转西南西北之间变化
温度 31°C
湿度 84%
气压 1004 hPa
能见度10公里或以上
散云层高于3300英尺
小雨,

METAR: ZJSY 280400Z 28003MPS 250V310 9999 -RA SCT033 31/28 Q1004 NOSIG

时间: 12:32 (04:32 UTC)

预报

该预报发布于7小时和22分钟前的21:10 UTC
预报有效从28日的 00点(UTC)到 28日的 24点(UTC)
风速8节,风向西
能见度10公里或以上
少量云层高于2000英尺
短暂存在
从 28日的 06点(UTC)到 28日的 12点(UTC)
散云层高于1800英尺
少量云层高于2500英尺, 积雨云.

TAF: ZJSY 272110Z 2800/2824 26004MPS 9999 FEW020 TX33/2806Z TN28/2821Z TEMPO 2806/2812 SCT018 FEW025CB

超过4000个机场的气象观测和天气预报(METAR&TAF报告)。

可查询的气象台以黄色和红色小点在地图上表示。

将鼠标移到小点上方,可查看气象台名称。

然后点击查看天气观测和预报。

如需切换地图:点击带黑十字的绿色按钮放大地图;点击带横线的绿色按钮缩小地图;或者点击绿色箭头查看邻近地区的地图。


METAR-TAF: